createdAt,value
2022-10-11T00:00:56.787Z,13.70
2022-10-11T00:03:25.201Z,26.90
2022-10-11T00:05:54.721Z,13.17
2022-10-11T00:08:23.846Z,15.10
2022-10-11T00:11:01.753Z,13.37
2022-10-11T00:13:30.103Z,14.10
2022-10-11T00:15:59.078Z,14.23
2022-10-11T00:18:27.758Z,13.40
2022-10-11T00:21:03.228Z,15.80
2022-10-11T00:23:39.677Z,15.73
2022-10-11T00:26:09.925Z,17.57
2022-10-11T00:28:38.762Z,14.23
2022-10-11T00:31:08.997Z,14.90
2022-10-11T00:33:37.514Z,15.07
2022-10-11T00:36:07.339Z,16.75
2022-10-11T00:38:36.260Z,15.87
2022-10-11T00:41:06.403Z,16.07
2022-10-11T00:43:34.794Z,14.00
2022-10-11T00:46:08.376Z,14.90
2022-10-11T00:48:41.669Z,16.30
2022-10-11T00:51:19.429Z,13.80
2022-10-11T00:53:49.599Z,13.97
2022-10-11T00:56:24.902Z,14.10
2022-10-11T00:58:55.464Z,15.27
2022-10-11T01:01:23.759Z,18.00
2022-10-11T01:03:51.975Z,17.80
2022-10-11T01:06:20.194Z,17.30
2022-10-11T01:08:48.595Z,15.30
2022-10-11T01:11:22.001Z,14.80
2022-10-11T01:14:09.309Z,16.38
2022-10-11T01:16:43.833Z,16.63
2022-10-11T01:19:29.531Z,15.02
2022-10-11T01:22:09.225Z,15.32
2022-10-11T01:24:55.263Z,16.58
2022-10-11T01:27:46.473Z,16.27
2022-10-11T01:30:27.088Z,16.10
2022-10-11T01:33:05.005Z,17.42
2022-10-11T01:35:40.931Z,27.33
2022-10-11T01:38:14.593Z,16.77
2022-10-11T01:40:48.850Z,15.73
2022-10-11T01:43:18.255Z,21.23
2022-10-11T01:45:52.361Z,21.55
2022-10-11T01:48:21.226Z,17.25
2022-10-11T01:50:51.755Z,18.73
2022-10-11T01:53:41.117Z,19.60
2022-10-11T01:56:22.682Z,23.92
2022-10-11T01:59:06.951Z,20.17
2022-10-11T02:01:47.225Z,19.45
2022-10-11T02:04:27.151Z,19.13
2022-10-11T02:07:01.350Z,17.35
2022-10-11T02:09:35.150Z,19.95
2022-10-11T02:12:09.395Z,22.20
2022-10-11T02:14:41.626Z,22.13
2022-10-11T02:17:15.067Z,18.40
2022-10-11T02:19:48.197Z,20.58
2022-10-11T02:22:22.848Z,22.00
2022-10-11T02:24:56.507Z,20.73
2022-10-11T02:27:27.779Z,21.33
2022-10-11T02:29:58.519Z,21.35
2022-10-11T02:32:30.446Z,21.10
2022-10-11T02:35:01.465Z,20.70
2022-10-11T02:37:37.725Z,22.52
2022-10-11T02:40:10.645Z,21.50
2022-10-11T02:42:44.763Z,24.45
2022-10-11T02:45:28.975Z,22.40
2022-10-11T02:47:59.605Z,22.73
2022-10-11T02:50:28.644Z,18.92
2022-10-11T02:52:56.881Z,21.63
2022-10-11T02:55:25.318Z,21.05
2022-10-11T02:57:53.526Z,21.02
2022-10-11T03:00:21.995Z,18.63
2022-10-11T03:02:50.222Z,22.70
2022-10-11T03:05:19.937Z,21.33
2022-10-11T03:07:48.133Z,19.95
2022-10-11T03:10:16.356Z,20.27
2022-10-11T03:12:44.585Z,18.25
2022-10-11T03:15:12.817Z,23.90
2022-10-11T03:17:41.031Z,22.83
2022-10-11T03:20:10.024Z,22.05
2022-10-11T03:22:39.641Z,23.90
2022-10-11T03:25:08.306Z,21.83
2022-10-11T03:27:36.723Z,25.02
2022-10-11T03:30:06.191Z,22.20
2022-10-11T03:32:34.425Z,21.67
2022-10-11T03:35:02.954Z,26.05
2022-10-11T03:37:31.325Z,23.25
2022-10-11T03:40:01.299Z,24.05
2022-10-11T03:42:29.639Z,24.00
2022-10-11T03:44:59.784Z,23.45
2022-10-11T03:47:28.426Z,20.30
2022-10-11T03:49:56.662Z,23.38
2022-10-11T03:52:25.033Z,23.67
2022-10-11T03:54:53.790Z,23.80
2022-10-11T03:57:23.394Z,23.25
2022-10-11T03:59:51.646Z,24.42
2022-10-11T04:02:19.934Z,23.67
2022-10-11T04:04:48.210Z,23.77
2022-10-11T04:07:16.571Z,23.73
2022-10-11T04:09:44.771Z,23.98
2022-10-11T04:12:13.174Z,21.57
2022-10-11T04:14:43.294Z,24.43
2022-10-11T04:17:11.743Z,23.92
2022-10-11T04:19:40.020Z,22.67
2022-10-11T04:22:08.795Z,21.13
2022-10-11T04:24:37.218Z,23.35
2022-10-11T04:27:06.002Z,22.52
2022-10-11T04:29:34.327Z,26.70
2022-10-11T04:32:03.963Z,25.27
2022-10-11T04:34:32.363Z,19.77
2022-10-11T04:37:00.614Z,24.45
2022-10-11T04:39:28.883Z,23.75
2022-10-11T04:41:57.142Z,28.20
2022-10-11T04:44:25.318Z,24.70
2022-10-11T04:46:53.531Z,27.83
2022-10-11T04:49:23.768Z,22.73
2022-10-11T04:51:52.042Z,25.30
2022-10-11T04:54:20.236Z,23.05
2022-10-11T04:56:48.460Z,22.55
2022-10-11T04:59:16.850Z,21.55
2022-10-11T05:01:45.140Z,25.52
2022-10-11T05:04:13.402Z,21.45
2022-10-11T05:06:43.085Z,25.05
2022-10-11T05:09:11.347Z,27.77
2022-10-11T05:11:39.567Z,24.45
2022-10-11T05:14:07.804Z,21.83
2022-10-11T05:16:36.090Z,26.00
2022-10-11T05:19:04.402Z,24.73
2022-10-11T05:21:33.035Z,25.43
2022-10-11T05:24:02.747Z,30.23
2022-10-11T05:26:30.948Z,27.45
2022-10-11T05:28:59.230Z,27.92
2022-10-11T05:31:27.608Z,24.70
2022-10-11T05:33:55.975Z,27.85
2022-10-11T05:36:24.172Z,28.15
2022-10-11T05:38:52.453Z,28.95
2022-10-11T05:41:22.080Z,28.92
2022-10-11T05:43:50.342Z,25.40
2022-10-11T05:46:18.609Z,26.33
2022-10-11T05:48:47.121Z,30.23
2022-10-11T05:51:15.319Z,27.58
2022-10-11T05:53:43.673Z,24.13
2022-10-11T05:56:24.769Z,24.20
2022-10-11T05:58:54.962Z,23.77
2022-10-11T06:01:27.838Z,28.73
2022-10-11T06:03:56.064Z,26.80
2022-10-11T06:06:36.956Z,29.20
2022-10-11T06:09:05.294Z,27.20
2022-10-11T06:11:34.945Z,26.23
2022-10-11T06:14:03.247Z,25.63
2022-10-11T06:16:31.536Z,22.77
2022-10-11T06:19:00.763Z,21.73
2022-10-11T06:21:29.106Z,20.30
2022-10-11T06:24:01.387Z,22.80
2022-10-11T06:26:29.982Z,25.53
2022-10-11T06:28:59.972Z,25.10
2022-10-11T06:31:28.442Z,22.77
2022-10-11T06:33:56.724Z,23.63
2022-10-11T06:36:24.928Z,23.33
2022-10-11T06:38:53.881Z,22.70
2022-10-11T06:41:25.613Z,23.40
2022-10-11T06:43:53.960Z,18.47
2022-10-11T06:46:25.602Z,22.70
2022-10-11T06:48:56.449Z,28.37
2022-10-11T06:51:25.478Z,23.10
2022-10-11T06:53:56.832Z,21.53
2022-10-11T06:56:26.699Z,27.87
2022-10-11T06:58:56.413Z,25.87
2022-10-11T07:01:26.535Z,20.37
2022-10-11T07:03:56.488Z,21.83
2022-10-11T07:06:26.884Z,18.90
2022-10-11T07:08:55.232Z,22.20
2022-10-11T07:11:25.429Z,23.60
2022-10-11T07:13:55.515Z,16.77
2022-10-11T07:16:26.293Z,23.67
2022-10-11T07:19:00.271Z,19.63
2022-10-11T07:21:29.752Z,21.47
2022-10-11T07:23:58.091Z,15.70
2022-10-11T07:26:26.620Z,23.53
2022-10-11T07:28:55.054Z,24.00
2022-10-11T07:31:25.793Z,21.37
2022-10-11T07:33:56.071Z,19.03
2022-10-11T07:36:24.501Z,21.33
2022-10-11T07:38:52.896Z,18.27
2022-10-11T07:41:21.563Z,19.57
2022-10-11T07:43:50.943Z,21.10
2022-10-11T07:46:19.552Z,19.73
2022-10-11T07:48:50.073Z,20.87
2022-10-11T07:51:22.101Z,17.90
2022-10-11T07:53:51.920Z,18.00
2022-10-11T07:56:22.971Z,17.77
2022-10-11T07:58:52.494Z,25.00
2022-10-11T08:01:21.638Z,24.33
2022-10-11T08:03:50.772Z,22.17
2022-10-11T08:06:23.103Z,22.17
2022-10-11T08:08:51.585Z,19.07
2022-10-11T08:11:24.304Z,18.73
2022-10-11T08:13:52.961Z,20.03
2022-10-11T08:16:22.591Z,22.30
2022-10-11T08:18:52.043Z,18.47
2022-10-11T08:21:21.713Z,17.23
2022-10-11T08:23:50.481Z,23.70
2022-10-11T08:26:18.819Z,20.03
2022-10-11T08:28:47.059Z,17.10
2022-10-11T08:31:16.679Z,20.53
2022-10-11T08:33:45.169Z,18.13
2022-10-11T08:36:14.015Z,18.80
2022-10-11T08:38:43.787Z,20.67
2022-10-11T08:41:25.401Z,17.63
2022-10-11T08:44:03.655Z,21.57
2022-10-11T08:46:35.072Z,21.50
2022-10-11T08:49:04.069Z,20.40
2022-10-11T08:51:36.726Z,17.77
2022-10-11T08:54:13.634Z,17.23
2022-10-11T08:56:43.329Z,17.90
2022-10-11T08:59:33.975Z,19.20
2022-10-11T09:02:05.961Z,19.93
2022-10-11T09:04:35.289Z,14.00
2022-10-11T09:07:08.827Z,17.37
2022-10-11T09:09:56.637Z,17.57
2022-10-11T09:12:40.507Z,19.50
2022-10-11T09:15:18.676Z,16.37
2022-10-11T09:18:25.120Z,16.50
2022-10-11T09:21:08.758Z,20.67
2022-10-11T09:23:54.472Z,18.07
2022-10-11T09:26:29.169Z,18.83
2022-10-11T09:29:06.682Z,18.27
2022-10-11T09:31:34.971Z,15.17
2022-10-11T09:34:11.829Z,16.07
2022-10-11T09:36:46.152Z,15.30
2022-10-11T09:39:25.991Z,20.67
2022-10-11T09:42:00.120Z,17.10
2022-10-11T09:44:30.519Z,17.10
2022-10-11T09:46:59.344Z,20.27
2022-10-11T09:49:32.276Z,17.20
2022-10-11T09:52:03.441Z,20.40
2022-10-11T09:54:42.826Z,17.20
2022-10-11T09:57:23.966Z,14.40
2022-10-11T10:00:05.649Z,16.17
2022-10-11T10:02:46.867Z,18.60
2022-10-11T10:05:18.978Z,14.80
2022-10-11T10:08:24.365Z,19.17
2022-10-11T10:11:01.298Z,15.63
2022-10-11T10:13:40.573Z,13.23
2022-10-11T10:16:11.804Z,14.27
2022-10-11T10:18:45.086Z,17.63
2022-10-11T10:21:16.756Z,15.93
2022-10-11T10:23:45.257Z,20.33
2022-10-11T10:26:17.011Z,14.73
2022-10-11T10:29:16.612Z,15.80
2022-10-11T10:34:54.972Z,16.27
2022-10-11T10:37:28.106Z,16.23
2022-10-11T10:40:01.164Z,14.43
2022-10-11T10:42:29.850Z,15.00
2022-10-11T10:45:00.089Z,15.70
2022-10-11T10:47:48.895Z,13.80
2022-10-11T10:50:22.833Z,14.97
2022-10-11T10:53:06.079Z,16.37
2022-10-11T10:55:38.778Z,14.60
2022-10-11T10:58:16.361Z,16.10
2022-10-11T11:00:50.905Z,14.40
2022-10-11T11:03:25.637Z,17.17
2022-10-11T11:06:02.806Z,13.23
2022-10-11T11:08:49.393Z,13.60
2022-10-11T11:11:44.307Z,12.97
2022-10-11T11:14:25.100Z,16.30
2022-10-11T11:17:00.978Z,14.80
2022-10-11T11:19:42.159Z,13.50
2022-10-11T11:22:19.514Z,15.50
2022-10-11T11:25:05.938Z,14.37
2022-10-11T11:27:50.274Z,14.07
2022-10-11T11:30:23.162Z,14.30
2022-10-11T11:33:07.714Z,14.93
2022-10-11T11:35:40.312Z,14.73
2022-10-11T11:38:12.600Z,13.57
2022-10-11T11:40:44.934Z,14.10
2022-10-11T11:43:22.269Z,15.50
2022-10-11T11:45:54.869Z,17.00
2022-10-11T11:48:26.812Z,14.77
2022-10-11T11:51:01.322Z,13.70
2022-10-11T11:53:44.714Z,15.97
2022-10-11T11:56:26.383Z,19.17
2022-10-11T11:59:03.128Z,12.80
2022-10-11T12:01:38.659Z,15.60
2022-10-11T12:04:15.123Z,17.17
2022-10-11T12:06:58.158Z,15.40
2022-10-11T12:09:32.022Z,14.17
2022-10-11T12:12:02.500Z,14.30
2022-10-11T12:14:37.977Z,13.10
2022-10-11T12:17:09.154Z,16.70
2022-10-11T12:19:41.487Z,18.10
2022-10-11T12:22:37.317Z,16.60
2022-10-11T12:25:34.640Z,16.50
2022-10-11T12:28:23.499Z,14.80
2022-10-11T12:30:54.514Z,15.13
2022-10-11T12:33:25.074Z,14.30
2022-10-11T12:36:07.325Z,12.53
2022-10-11T12:38:39.768Z,15.63
2022-10-11T12:41:39.717Z,14.67
2022-10-11T12:44:10.405Z,13.27
2022-10-11T12:46:57.694Z,14.00
2022-10-11T12:49:56.868Z,16.43
2022-10-11T12:52:39.532Z,14.53
2022-10-11T12:55:27.618Z,12.73
2022-10-11T12:58:26.730Z,14.60
2022-10-11T13:01:18.704Z,13.57
2022-10-11T13:03:53.081Z,13.40
2022-10-11T13:06:25.277Z,15.60
2022-10-11T13:08:57.841Z,15.50
2022-10-11T13:11:34.924Z,15.97
2022-10-11T13:14:10.653Z,16.50
2022-10-11T13:16:52.682Z,14.70
2022-10-11T13:19:24.071Z,14.40
2022-10-11T13:21:55.736Z,14.80
2022-10-11T13:24:25.903Z,13.17
2022-10-11T13:26:56.866Z,14.07
2022-10-11T13:29:33.652Z,17.57
2022-10-11T13:32:04.380Z,16.63
2022-10-11T13:34:37.671Z,17.07
2022-10-11T13:37:05.940Z,14.47
2022-10-11T13:39:39.157Z,17.57
2022-10-11T13:42:12.033Z,17.53
2022-10-11T13:44:41.196Z,18.23
2022-10-11T13:47:14.843Z,17.83
2022-10-11T13:49:47.653Z,15.43
2022-10-11T13:52:22.913Z,17.90
2022-10-11T13:55:11.451Z,16.83
2022-10-11T13:57:42.222Z,15.50
2022-10-11T14:00:23.280Z,18.50
2022-10-11T14:02:56.008Z,17.10
2022-10-11T14:05:33.889Z,17.37
2022-10-11T14:08:04.661Z,16.03
2022-10-11T14:10:35.152Z,15.23
2022-10-11T14:13:09.038Z,19.63
2022-10-11T14:15:39.085Z,15.13
2022-10-11T14:18:37.998Z,19.67
2022-10-11T14:21:32.218Z,19.37
2022-10-11T14:24:01.926Z,15.33
2022-10-11T14:26:35.904Z,15.53
2022-10-11T14:29:07.810Z,17.83
2022-10-11T14:31:41.683Z,17.53
2022-10-11T14:34:17.661Z,18.30
2022-10-11T14:36:45.953Z,19.43
2022-10-11T14:39:16.788Z,17.83
2022-10-11T14:41:47.325Z,17.57
2022-10-11T14:44:16.744Z,20.50
2022-10-11T14:46:45.870Z,19.60
2022-10-11T14:49:16.039Z,14.20
2022-10-11T14:51:45.469Z,16.90
2022-10-11T14:54:14.444Z,19.47
2022-10-11T14:56:42.591Z,15.90
2022-10-11T14:59:15.467Z,18.20
2022-10-11T15:01:46.230Z,15.83
2022-10-11T15:04:15.410Z,15.50
2022-10-11T15:06:43.735Z,16.17
2022-10-11T15:09:11.942Z,19.30
2022-10-11T15:11:40.224Z,15.60
2022-10-11T15:14:08.393Z,18.07
2022-10-11T15:16:37.991Z,18.50
2022-10-11T15:19:06.114Z,16.43
2022-10-11T15:21:35.399Z,15.87
2022-10-11T15:24:03.572Z,18.13
2022-10-11T15:26:33.853Z,17.53
2022-10-11T15:29:01.955Z,15.20
2022-10-11T15:31:30.323Z,18.00
2022-10-11T15:34:01.831Z,15.90
2022-10-11T15:36:30.259Z,16.47
2022-10-11T15:38:58.605Z,14.50
2022-10-11T15:41:26.771Z,16.97
2022-10-11T15:43:55.154Z,14.87
2022-10-11T15:46:23.926Z,19.80
2022-10-11T15:48:53.103Z,17.80
2022-10-11T15:51:22.574Z,20.50
2022-10-11T15:53:50.781Z,15.60
2022-10-11T15:56:19.744Z,22.83
2022-10-11T15:58:48.286Z,19.43
2022-10-11T16:01:18.725Z,16.03
2022-10-11T16:03:47.450Z,18.70
2022-10-11T16:06:15.864Z,16.07
2022-10-11T16:08:45.490Z,19.80
2022-10-11T16:11:14.021Z,14.13
2022-10-11T16:13:42.174Z,18.30
2022-10-11T16:16:11.028Z,13.73
2022-10-11T16:18:39.658Z,15.97
2022-10-11T16:21:10.101Z,15.60
2022-10-11T16:23:38.698Z,19.60
2022-10-11T16:26:10.504Z,17.30
2022-10-11T16:28:39.098Z,16.63
2022-10-11T16:31:08.847Z,12.50
2022-10-11T16:33:45.532Z,11.80
2022-10-11T16:36:35.696Z,14.17
2022-10-11T16:39:07.718Z,12.50
2022-10-11T16:41:37.600Z,13.50
2022-10-11T16:44:06.064Z,14.03
2022-10-11T16:46:34.647Z,12.90
2022-10-11T16:49:02.819Z,11.83
2022-10-11T16:51:30.985Z,17.80
2022-10-11T16:53:59.134Z,13.13
2022-10-11T16:56:28.006Z,13.20
2022-10-11T16:58:57.543Z,13.67
2022-10-11T17:01:26.175Z,13.40
2022-10-11T17:03:55.681Z,15.10
2022-10-11T17:06:24.457Z,12.83
2022-10-11T17:08:52.770Z,14.10
2022-10-11T17:11:22.254Z,21.03
2022-10-11T17:13:53.275Z,14.70
2022-10-11T17:16:23.396Z,16.80
2022-10-11T17:18:51.773Z,16.20
2022-10-11T17:21:22.195Z,15.93
2022-10-11T17:23:51.232Z,13.60
2022-10-11T17:26:22.249Z,13.67
2022-10-11T17:28:50.895Z,14.23
2022-10-11T17:31:19.231Z,15.97
2022-10-11T17:33:48.766Z,16.57
2022-10-11T17:36:27.787Z,14.20
2022-10-11T17:38:55.935Z,18.27
2022-10-11T17:41:28.157Z,15.80
2022-10-11T17:43:59.641Z,14.33
2022-10-11T17:46:32.361Z,13.60
2022-10-11T17:49:04.776Z,16.77
2022-10-11T17:51:33.208Z,14.20
2022-10-11T17:54:01.414Z,14.60
2022-10-11T17:56:33.698Z,17.13
2022-10-11T17:59:04.870Z,14.60
2022-10-11T18:01:33.067Z,15.10
2022-10-11T18:04:04.833Z,16.40
2022-10-11T18:06:35.202Z,16.67
2022-10-11T18:09:04.902Z,14.00
2022-10-11T18:11:33.859Z,15.37
2022-10-11T18:14:02.391Z,13.50
2022-10-11T18:16:31.391Z,15.90
2022-10-11T18:19:00.174Z,14.60
2022-10-11T18:21:34.337Z,15.10
2022-10-11T18:24:05.737Z,14.13
2022-10-11T18:26:33.933Z,14.03
2022-10-11T18:29:02.065Z,14.67
2022-10-11T18:31:33.693Z,16.37
2022-10-11T18:34:01.975Z,17.67
2022-10-11T18:36:32.703Z,15.50
2022-10-11T18:39:03.725Z,15.43
2022-10-11T18:41:33.722Z,18.00
2022-10-11T18:44:03.111Z,19.43
2022-10-11T18:46:31.290Z,15.60
2022-10-11T18:49:01.703Z,17.60
2022-10-11T18:51:33.265Z,17.07
2022-10-11T18:54:02.046Z,18.10
2022-10-11T18:56:31.682Z,16.90
2022-10-11T18:59:00.226Z,23.80
2022-10-11T19:01:30.131Z,27.20
2022-10-11T19:03:59.960Z,25.73
2022-10-11T19:06:30.303Z,28.17
2022-10-11T19:09:03.389Z,27.07
2022-10-11T19:11:32.199Z,24.80
2022-10-11T19:14:02.230Z,26.10
2022-10-11T19:16:31.114Z,24.63
2022-10-11T19:18:59.586Z,23.60
2022-10-11T19:21:27.882Z,25.30
2022-10-11T19:23:57.168Z,26.60
2022-10-11T19:26:29.063Z,27.13
2022-10-11T19:28:59.539Z,32.80
2022-10-11T19:31:28.920Z,26.53
2022-10-11T19:33:57.779Z,25.70
2022-10-11T19:36:26.691Z,27.70
2022-10-11T19:38:56.775Z,27.70
2022-10-11T19:41:27.815Z,24.03
2022-10-11T19:43:58.085Z,27.20
2022-10-11T19:46:49.946Z,23.97
2022-10-11T19:49:17.542Z,26.17
2022-10-11T19:51:45.853Z,25.17
2022-10-11T19:54:15.426Z,25.07
2022-10-11T19:56:45.103Z,26.27
2022-10-11T19:59:14.467Z,23.47
2022-10-11T20:01:46.657Z,28.80
2022-10-11T20:04:39.557Z,29.40
2022-10-11T20:07:06.215Z,24.13
2022-10-11T20:09:34.339Z,28.20
2022-10-11T20:12:03.889Z,27.20
2022-10-11T20:14:32.059Z,27.77
2022-10-11T20:17:00.171Z,23.60
2022-10-11T20:19:31.074Z,23.50
2022-10-11T20:22:00.655Z,24.67
2022-10-11T20:24:32.697Z,21.87
2022-10-11T20:27:04.038Z,32.03
2022-10-11T20:29:32.361Z,25.83
2022-10-11T20:32:00.589Z,29.40
2022-10-11T20:34:29.106Z,24.20
2022-10-11T20:36:57.230Z,24.03
2022-10-11T20:39:25.528Z,21.60
2022-10-11T20:41:53.650Z,25.03
2022-10-11T20:44:23.230Z,26.40
2022-10-11T20:46:51.369Z,24.90
2022-10-11T20:49:20.729Z,24.87
2022-10-11T20:51:49.249Z,26.50
2022-10-11T20:54:17.684Z,26.33
2022-10-11T20:56:45.814Z,26.33
2022-10-11T20:59:14.042Z,24.50
2022-10-11T21:01:44.055Z,22.40
2022-10-11T21:04:19.547Z,28.20
2022-10-11T21:06:48.928Z,23.17
2022-10-11T21:09:17.702Z,27.70
2022-10-11T21:11:46.495Z,24.60
2022-10-11T21:14:14.794Z,25.70
2022-10-11T21:16:44.547Z,26.70
2022-10-11T21:19:15.836Z,21.97
2022-10-11T21:21:46.408Z,25.47
2022-10-11T21:24:16.611Z,25.47
2022-10-11T21:26:44.760Z,26.30
2022-10-11T21:29:12.862Z,25.60
2022-10-11T21:31:41.670Z,21.13
2022-10-11T21:34:11.131Z,24.00
2022-10-11T21:36:39.663Z,24.70
2022-10-11T21:39:07.881Z,25.13
2022-10-11T21:41:36.031Z,27.23
2022-10-11T21:44:05.383Z,25.50
2022-10-11T21:47:05.940Z,30.20
2022-10-11T21:49:23.550Z,24.93
2022-10-11T21:51:51.770Z,24.10
2022-10-11T21:54:19.984Z,24.03
2022-10-11T21:56:48.138Z,26.37
2022-10-11T21:59:16.355Z,27.53
2022-10-11T22:01:44.553Z,24.47
2022-10-11T22:04:13.118Z,29.47
2022-10-11T22:06:42.614Z,21.33
2022-10-11T22:09:11.796Z,29.07
2022-10-11T22:11:40.199Z,27.23
2022-10-11T22:14:08.359Z,25.67
2022-10-11T22:16:36.571Z,29.77
2022-10-11T22:19:05.214Z,24.60
2022-10-11T22:21:33.333Z,27.93
2022-10-11T22:24:02.969Z,26.83
2022-10-11T22:26:32.473Z,26.10
2022-10-11T22:29:00.865Z,27.57
2022-10-11T22:31:30.153Z,26.50
2022-10-11T22:33:59.729Z,29.98
2022-10-11T22:36:28.013Z,24.17
2022-10-11T22:38:56.239Z,29.35
2022-10-11T22:41:25.817Z,26.27
2022-10-11T22:43:53.998Z,27.10
2022-10-11T22:46:22.167Z,31.13
2022-10-11T22:48:50.338Z,26.73
2022-10-11T22:51:18.488Z,28.63
2022-10-11T22:53:46.626Z,29.40
2022-10-11T22:56:15.361Z,28.37
2022-10-11T22:58:44.941Z,26.33
2022-10-11T23:01:15.214Z,25.23
2022-10-11T23:03:43.489Z,23.53
2022-10-11T23:06:11.698Z,26.27
2022-10-11T23:08:39.798Z,25.57
2022-10-11T23:11:09.318Z,22.87
2022-10-11T23:13:37.702Z,27.10
2022-10-11T23:16:12.323Z,23.63
2022-10-11T23:18:40.915Z,25.67
2022-10-11T23:21:09.619Z,22.00
2022-10-11T23:23:39.681Z,33.97
2022-10-11T23:26:10.531Z,26.20
2022-10-11T23:28:38.761Z,30.93
2022-10-11T23:31:08.293Z,24.30
2022-10-11T23:33:37.848Z,23.87
2022-10-11T23:36:07.160Z,28.50
2022-10-11T23:38:35.244Z,21.77
2022-10-11T23:41:03.427Z,24.87
2022-10-11T23:43:31.502Z,29.60
2022-10-11T23:46:00.405Z,25.33
2022-10-11T23:48:28.711Z,21.97
2022-10-11T23:50:58.186Z,26.80
2022-10-11T23:53:26.270Z,24.30
2022-10-11T23:55:54.395Z,25.80
2022-10-11T23:58:22.718Z,23.73
